sensor_id;sensor_type;location;lat;lon;timestamp;pressure;altitude;pressure_sealevel;temperature;humidity
8366;BME280;4220;42.502;24.188;2023-07-08T00:00:13;95348.94;;;20.19;100.00
8366;BME280;4220;42.502;24.188;2023-07-08T00:02:41;95351.09;;;20.23;100.00
8366;BME280;4220;42.502;24.188;2023-07-08T00:05:09;95347.84;;;20.31;100.00
8366;BME280;4220;42.502;24.188;2023-07-08T00:07:39;95352.16;;;20.32;100.00
8366;BME280;4220;42.502;24.188;2023-07-08T00:10:12;95351.09;;;20.17;100.00
8366;BME280;4220;42.502;24.188;2023-07-08T00:12:41;95348.16;;;20.24;100.00
8366;BME280;4220;42.502;24.188;2023-07-08T00:15:08;95346.53;;;20.23;100.00
8366;BME280;4220;42.502;24.188;2023-07-08T00:17:36;95353.00;;;20.17;100.00
8366;BME280;4220;42.502;24.188;2023-07-08T00:20:10;95352.47;;;20.05;100.00
8366;BME280;4220;42.502;24.188;2023-07-08T00:22:41;95341.97;;;20.08;100.00
8366;BME280;4220;42.502;24.188;2023-07-08T00:25:08;95344.16;;;20.01;100.00
8366;BME280;4220;42.502;24.188;2023-07-08T00:27:35;95344.72;;;19.88;100.00
8366;BME280;4220;42.502;24.188;2023-07-08T00:30:16;95349.34;;;19.78;100.00
8366;BME280;4220;42.502;24.188;2023-07-08T00:32:44;95354.16;;;19.71;100.00
8366;BME280;4220;42.502;24.188;2023-07-08T00:35:11;95350.41;;;19.62;100.00
8366;BME280;4220;42.502;24.188;2023-07-08T00:37:38;95353.09;;;19.62;100.00
8366;BME280;4220;42.502;24.188;2023-07-08T00:40:15;95354.19;;;19.61;100.00
8366;BME280;4220;42.502;24.188;2023-07-08T00:42:43;95351.75;;;19.74;100.00
8366;BME280;4220;42.502;24.188;2023-07-08T00:45:21;95346.88;;;19.86;100.00
8366;BME280;4220;42.502;24.188;2023-07-08T00:47:53;95354.41;;;19.89;100.00
8366;BME280;4220;42.502;24.188;2023-07-08T00:50:22;95354.41;;;19.84;100.00
8366;BME280;4220;42.502;24.188;2023-07-08T00:52:49;95352.53;;;19.90;100.00
8366;BME280;4220;42.502;24.188;2023-07-08T00:55:17;95359.50;;;19.96;100.00
8366;BME280;4220;42.502;24.188;2023-07-08T00:57:44;95345.53;;;19.89;100.00
8366;BME280;4220;42.502;24.188;2023-07-08T01:00:14;95358.16;;;19.93;100.00
8366;BME280;4220;42.502;24.188;2023-07-08T01:02:46;95350.91;;;19.89;100.00
8366;BME280;4220;42.502;24.188;2023-07-08T01:05:17;95324.31;;;19.57;100.00
8366;BME280;4220;42.502;24.188;2023-07-08T01:07:49;95346.66;;;19.58;100.00
8366;BME280;4220;42.502;24.188;2023-07-08T01:10:24;95357.44;;;19.52;100.00
8366;BME280;4220;42.502;24.188;2023-07-08T01:12:56;95344.50;;;19.49;100.00
8366;BME280;4220;42.502;24.188;2023-07-08T01:15:29;95350.44;;;19.46;100.00
8366;BME280;4220;42.502;24.188;2023-07-08T01:17:56;95346.13;;;19.45;100.00
8366;BME280;4220;42.502;24.188;2023-07-08T01:20:24;95361.19;;;19.41;100.00
8366;BME280;4220;42.502;24.188;2023-07-08T01:22:52;95348.00;;;19.40;100.00
8366;BME280;4220;42.502;24.188;2023-07-08T01:25:19;95336.94;;;19.26;100.00
8366;BME280;4220;42.502;24.188;2023-07-08T01:27:48;95342.06;;;19.23;100.00
8366;BME280;4220;42.502;24.188;2023-07-08T01:30:16;95344.22;;;19.21;100.00
8366;BME280;4220;42.502;24.188;2023-07-08T01:32:48;95351.19;;;19.12;100.00
8366;BME280;4220;42.502;24.188;2023-07-08T01:35:16;95358.47;;;19.11;100.00
8366;BME280;4220;42.502;24.188;2023-07-08T01:37:51;95366.25;;;19.08;100.00
8366;BME280;4220;42.502;24.188;2023-07-08T01:40:28;95358.72;;;19.00;100.00
8366;BME280;4220;42.502;24.188;2023-07-08T01:42:55;95293.09;;;18.65;100.00
8366;BME280;4220;42.502;24.188;2023-07-08T01:45:26;95357.38;;;18.97;100.00
8366;BME280;4220;42.502;24.188;2023-07-08T01:47:59;95352.28;;;19.01;100.00
8366;BME280;4220;42.502;24.188;2023-07-08T01:50:28;95356.03;;;19.00;100.00
8366;BME280;4220;42.502;24.188;2023-07-08T01:52:57;95345.84;;;18.97;100.00
8366;BME280;4220;42.502;24.188;2023-07-08T01:55:27;95357.66;;;18.96;100.00
8366;BME280;4220;42.502;24.188;2023-07-08T01:57:55;95362.22;;;18.95;100.00
8366;BME280;4220;42.502;24.188;2023-07-08T02:00:23;95343.13;;;18.86;100.00
8366;BME280;4220;42.502;24.188;2023-07-08T02:02:50;95363.53;;;18.92;100.00
8366;BME280;4220;42.502;24.188;2023-07-08T02:05:17;95346.34;;;18.83;100.00
8366;BME280;4220;42.502;24.188;2023-07-08T02:07:44;95352.25;;;18.85;100.00
8366;BME280;4220;42.502;24.188;2023-07-08T02:10:11;95358.16;;;18.82;100.00
8366;BME280;4220;42.502;24.188;2023-07-08T02:12:39;95358.72;;;18.84;100.00
8366;BME280;4220;42.502;24.188;2023-07-08T02:15:08;95355.44;;;18.77;100.00
8366;BME280;4220;42.502;24.188;2023-07-08T02:17:35;95344.69;;;18.77;100.00
8366;BME280;4220;42.502;24.188;2023-07-08T02:20:03;95360.56;;;18.74;100.00
8366;BME280;4220;42.502;24.188;2023-07-08T02:22:29;95343.63;;;18.73;100.00
8366;BME280;4220;42.502;24.188;2023-07-08T02:24:56;95346.81;;;18.65;100.00
8366;BME280;4220;42.502;24.188;2023-07-08T02:27:23;95359.72;;;18.63;100.00
8366;BME280;4220;42.502;24.188;2023-07-08T02:29:51;95346.28;;;18.58;100.00
8366;BME280;4220;42.502;24.188;2023-07-08T02:32:18;95343.84;;;18.52;100.00
8366;BME280;4220;42.502;24.188;2023-07-08T02:34:45;95345.19;;;18.49;100.00
8366;BME280;4220;42.502;24.188;2023-07-08T02:37:12;95351.91;;;18.52;100.00
8366;BME280;4220;42.502;24.188;2023-07-08T02:39:39;95340.88;;;18.48;100.00
8366;BME280;4220;42.502;24.188;2023-07-08T02:42:06;95365.03;;;18.48;100.00
8366;BME280;4220;42.502;24.188;2023-07-08T02:44:33;95385.47;;;18.49;100.00
8366;BME280;4220;42.502;24.188;2023-07-08T02:47:01;95368.00;;;18.47;100.00
8366;BME280;4220;42.502;24.188;2023-07-08T02:49:30;95360.69;;;18.37;100.00
8366;BME280;4220;42.502;24.188;2023-07-08T02:51:57;95367.94;;;18.42;100.00
8366;BME280;4220;42.502;24.188;2023-07-08T02:54:23;95373.31;;;18.42;100.00
8366;BME280;4220;42.502;24.188;2023-07-08T02:56:50;95384.03;;;18.37;100.00
8366;BME280;4220;42.502;24.188;2023-07-08T02:59:17;95372.78;;;18.40;100.00
8366;BME280;4220;42.502;24.188;2023-07-08T03:01:44;95371.69;;;18.41;100.00
8366;BME280;4220;42.502;24.188;2023-07-08T03:04:13;95373.84;;;18.39;100.00
8366;BME280;4220;42.502;24.188;2023-07-08T03:06:40;95385.13;;;18.41;100.00
8366;BME280;4220;42.502;24.188;2023-07-08T03:09:08;95373.63;;;18.45;100.00
8366;BME280;4220;42.502;24.188;2023-07-08T03:11:35;95377.38;;;18.44;100.00
8366;BME280;4220;42.502;24.188;2023-07-08T03:14:02;95383.03;;;18.48;100.00
8366;BME280;4220;42.502;24.188;2023-07-08T03:16:29;95383.03;;;18.48;100.00
8366;BME280;4220;42.502;24.188;2023-07-08T03:18:56;95396.47;;;18.53;100.00
8366;BME280;4220;42.502;24.188;2023-07-08T03:21:24;95394.06;;;18.51;100.00
8366;BME280;4220;42.502;24.188;2023-07-08T03:23:52;95394.06;;;18.51;100.00
8366;BME280;4220;42.502;24.188;2023-07-08T03:26:20;95401.84;;;18.53;100.00
8366;BME280;4220;42.502;24.188;2023-07-08T03:28:48;95392.44;;;18.50;100.00
8366;BME280;4220;42.502;24.188;2023-07-08T03:31:15;95396.72;;;18.46;100.00
8366;BME280;4220;42.502;24.188;2023-07-08T03:33:42;95389.16;;;18.43;100.00
8366;BME280;4220;42.502;24.188;2023-07-08T03:36:11;95385.69;;;18.43;100.00
8366;BME280;4220;42.502;24.188;2023-07-08T03:38:42;95382.44;;;18.41;100.00
8366;BME280;4220;42.502;24.188;2023-07-08T03:41:08;95395.69;;;18.47;100.00
8366;BME280;4220;42.502;24.188;2023-07-08T03:43:35;95394.59;;;18.48;100.00
8366;BME280;4220;42.502;24.188;2023-07-08T03:46:02;95394.34;;;18.50;100.00
8366;BME280;4220;42.502;24.188;2023-07-08T03:48:29;95399.97;;;18.48;100.00
8366;BME280;4220;42.502;24.188;2023-07-08T03:50:56;95399.72;;;18.50;100.00
8366;BME280;4220;42.502;24.188;2023-07-08T03:53:22;95404.28;;;18.49;100.00
8366;BME280;4220;42.502;24.188;2023-07-08T03:55:51;95401.81;;;18.43;100.00
8366;BME280;4220;42.502;24.188;2023-07-08T03:58:17;95441.00;;;18.44;100.00
8366;BME280;4220;42.502;24.188;2023-07-08T04:00:44;95454.72;;;18.42;100.00
8366;BME280;4220;42.502;24.188;2023-07-08T04:03:11;95438.28;;;18.39;100.00
8366;BME280;4220;42.502;24.188;2023-07-08T04:05:38;95432.06;;;18.28;100.00
8366;BME280;4220;42.502;24.188;2023-07-08T04:08:05;95448.16;;;18.28;100.00
8366;BME280;4220;42.502;24.188;2023-07-08T04:10:32;95440.13;;;18.28;100.00
8366;BME280;4220;42.502;24.188;2023-07-08T04:13:00;95432.31;;;18.21;100.00
8366;BME280;4220;42.502;24.188;2023-07-08T04:15:27;95418.59;;;18.18;100.00
8366;BME280;4220;42.502;24.188;2023-07-08T04:17:54;95425.34;;;18.20;100.00
8366;BME280;4220;42.502;24.188;2023-07-08T04:20:23;95417.53;;;18.19;100.00
8366;BME280;4220;42.502;24.188;2023-07-08T04:22:50;95441.69;;;18.19;100.00
8366;BME280;4220;42.502;24.188;2023-07-08T04:25:18;95403.03;;;18.20;100.00
8366;BME280;4220;42.502;24.188;2023-07-08T04:27:45;95413.25;;;18.23;100.00
8366;BME280;4220;42.502;24.188;2023-07-08T04:30:20;95397.16;;;18.23;100.00
8366;BME280;4220;42.502;24.188;2023-07-08T04:32:49;95432.56;;;18.20;100.00
8366;BME280;4220;42.502;24.188;2023-07-08T04:35:16;95396.34;;;18.22;100.00
8366;BME280;4220;42.502;24.188;2023-07-08T04:37:43;95372.84;;;17.98;100.00
8366;BME280;4220;42.502;24.188;2023-07-08T04:40:17;95429.38;;;18.23;100.00
8366;BME280;4220;42.502;24.188;2023-07-08T04:42:45;95405.22;;;18.28;100.00
8366;BME280;4220;42.502;24.188;2023-07-08T04:45:16;95401.75;;;18.33;100.00
8366;BME280;4220;42.502;24.188;2023-07-08T04:47:43;95409.88;;;18.43;100.00
8366;BME280;4220;42.502;24.188;2023-07-08T04:50:17;95409.88;;;18.48;100.00
8366;BME280;4220;42.502;24.188;2023-07-08T04:52:44;95421.50;;;18.58;100.00
8366;BME280;4220;42.502;24.188;2023-07-08T04:55:12;95423.13;;;18.59;100.00
8366;BME280;4220;42.502;24.188;2023-07-08T04:57:40;95418.00;;;18.63;100.00
8366;BME280;4220;42.502;24.188;2023-07-08T05:00:09;95410.75;;;18.58;100.00
8366;BME280;4220;42.502;24.188;2023-07-08T05:02:40;95440.34;;;18.68;100.00
8366;BME280;4220;42.502;24.188;2023-07-08T05:05:08;95424.47;;;18.62;100.00
8366;BME280;4220;42.502;24.188;2023-07-08T05:07:35;95401.63;;;18.59;100.00
8366;BME280;4220;42.502;24.188;2023-07-08T05:10:02;95408.09;;;18.68;100.00
8366;BME280;4220;42.502;24.188;2023-07-08T05:12:29;95417.53;;;18.76;100.00
8366;BME280;4220;42.502;24.188;2023-07-08T05:14:55;95432.03;;;18.80;100.00
8366;BME280;4220;42.502;24.188;2023-07-08T05:17:22;95423.97;;;18.80;100.00
8366;BME280;4220;42.502;24.188;2023-07-08T05:19:51;95423.19;;;18.89;100.00
8366;BME280;4220;42.502;24.188;2023-07-08T05:22:19;95420.28;;;18.96;100.00
8366;BME280;4220;42.502;24.188;2023-07-08T05:24:50;95413.28;;;19.00;100.00
8366;BME280;4220;42.502;24.188;2023-07-08T05:27:17;95412.47;;;19.00;100.00
8366;BME280;4220;42.502;24.188;2023-07-08T05:29:46;95408.44;;;18.97;100.00
8366;BME280;4220;42.502;24.188;2023-07-08T05:32:12;95420.34;;;19.21;100.00
8366;BME280;4220;42.502;24.188;2023-07-08T05:34:39;95419.00;;;19.24;100.00
8366;BME280;4220;42.502;24.188;2023-07-08T05:37:08;95431.88;;;19.22;100.00
8366;BME280;4220;42.502;24.188;2023-07-08T05:39:35;95421.94;;;19.22;100.00
8366;BME280;4220;42.502;24.188;2023-07-08T05:42:02;95424.09;;;19.20;100.00
8366;BME280;4220;42.502;24.188;2023-07-08T05:44:28;95421.13;;;19.22;100.00
8366;BME280;4220;42.502;24.188;2023-07-08T05:46:55;95424.91;;;19.21;100.00
8366;BME280;4220;42.502;24.188;2023-07-08T05:49:22;95403.63;;;19.24;100.00
8366;BME280;4220;42.502;24.188;2023-07-08T05:51:49;95381.06;;;19.15;100.00
8366;BME280;4220;42.502;24.188;2023-07-08T05:54:18;95416.31;;;19.39;100.00
8366;BME280;4220;42.502;24.188;2023-07-08T05:56:45;95408.25;;;19.49;100.00
8366;BME280;4220;42.502;24.188;2023-07-08T05:59:11;95414.47;;;19.54;100.00
8366;BME280;4220;42.502;24.188;2023-07-08T06:01:38;95374.38;;;19.38;100.00
8366;BME280;4220;42.502;24.188;2023-07-08T06:04:05;95398.03;;;19.61;100.00
8366;BME280;4220;42.502;24.188;2023-07-08T06:06:32;95383.53;;;19.57;100.00
8366;BME280;4220;42.502;24.188;2023-07-08T06:08:59;95417.66;;;19.92;100.00
8366;BME280;4220;42.502;24.188;2023-07-08T06:11:27;95431.38;;;20.00;100.00
8366;BME280;4220;42.502;24.188;2023-07-08T06:13:54;95423.84;;;19.97;100.00
8366;BME280;4220;42.502;24.188;2023-07-08T06:16:21;95424.66;;;19.93;100.00
8366;BME280;4220;42.502;24.188;2023-07-08T06:18:48;95410.94;;;19.89;100.00
8366;BME280;4220;42.502;24.188;2023-07-08T06:21:14;95420.34;;;19.97;100.00
8366;BME280;4220;42.502;24.188;2023-07-08T06:23:41;95414.16;;;20.06;100.00
8366;BME280;4220;42.502;24.188;2023-07-08T06:26:08;95451.81;;;20.21;100.00
8366;BME280;4220;42.502;24.188;2023-07-08T06:28:36;95433.47;;;20.44;100.00
8366;BME280;4220;42.502;24.188;2023-07-08T06:31:03;95451.81;;;20.42;100.00
8366;BME280;4220;42.502;24.188;2023-07-08T06:33:30;95438.34;;;20.37;100.00
8366;BME280;4220;42.502;24.188;2023-07-08T06:35:57;95424.31;;;20.35;100.00
8366;BME280;4220;42.502;24.188;2023-07-08T06:38:23;95445.91;;;20.14;100.00
8366;BME280;4220;42.502;24.188;2023-07-08T06:40:50;95453.44;;;20.28;100.00
8366;BME280;4220;42.502;24.188;2023-07-08T06:43:17;95454.50;;;20.37;100.00
8366;BME280;4220;42.502;24.188;2023-07-08T06:45:45;95442.38;;;20.39;100.00
8366;BME280;4220;42.502;24.188;2023-07-08T06:48:12;95455.56;;;20.41;100.00
8366;BME280;4220;42.502;24.188;2023-07-08T06:50:41;95465.00;;;20.33;100.00
8366;BME280;4220;42.502;24.188;2023-07-08T06:53:09;95449.38;;;20.40;100.00
8366;BME280;4220;42.502;24.188;2023-07-08T06:55:36;95463.34;;;20.47;100.00
8366;BME280;4220;42.502;24.188;2023-07-08T06:58:02;95471.69;;;20.61;100.00
8366;BME280;4220;42.502;24.188;2023-07-08T07:00:29;95456.50;;;20.80;100.00
8366;BME280;4220;42.502;24.188;2023-07-08T07:02:57;95457.53;;;20.94;100.00
8366;BME280;4220;42.502;24.188;2023-07-08T07:05:24;95456.66;;;21.09;100.00
8366;BME280;4220;42.502;24.188;2023-07-08T07:07:51;95446.06;;;21.27;100.00
8366;BME280;4220;42.502;24.188;2023-07-08T07:10:19;95433.28;;;21.38;100.00
8366;BME280;4220;42.502;24.188;2023-07-08T07:12:46;95444.56;;;21.45;100.00
8366;BME280;4220;42.502;24.188;2023-07-08T07:15:12;95457.75;;;21.52;100.00
8366;BME280;4220;42.502;24.188;2023-07-08T07:17:39;95444.75;;;21.59;100.00
8366;BME280;4220;42.502;24.188;2023-07-08T07:20:09;95476.59;;;21.62;100.00
8366;BME280;4220;42.502;24.188;2023-07-08T07:22:35;95475.78;;;21.61;100.00
8366;BME280;4220;42.502;24.188;2023-07-08T07:25:03;95479.84;;;21.59;100.00
8366;BME280;4220;42.502;24.188;2023-07-08T07:27:30;95487.50;;;21.41;100.00
8366;BME280;4220;42.502;24.188;2023-07-08T07:29:57;95476.66;;;21.52;100.00
8366;BME280;4220;42.502;24.188;2023-07-08T07:32:25;95475.59;;;21.47;100.00
8366;BME280;4220;42.502;24.188;2023-07-08T07:34:53;95480.78;;;21.39;100.00
8366;BME280;4220;42.502;24.188;2023-07-08T07:37:21;95492.84;;;21.52;100.00
8366;BME280;4220;42.502;24.188;2023-07-08T07:39:48;95487.84;;;21.74;100.00
8366;BME280;4220;42.502;24.188;2023-07-08T07:42:17;95474.69;;;22.01;100.00
8366;BME280;4220;42.502;24.188;2023-07-08T07:44:44;95490.66;;;21.97;100.00
8366;BME280;4220;42.502;24.188;2023-07-08T07:47:11;95505.69;;;22.08;100.00
8366;BME280;4220;42.502;24.188;2023-07-08T07:49:38;95501.41;;;22.31;100.00
8366;BME280;4220;42.502;24.188;2023-07-08T07:52:06;95501.47;;;22.26;100.00
8366;BME280;4220;42.502;24.188;2023-07-08T07:54:34;95518.13;;;22.04;100.00
8366;BME280;4220;42.502;24.188;2023-07-08T07:57:01;95509.78;;;22.06;100.00
8366;BME280;4220;42.502;24.188;2023-07-08T07:59:28;95509.31;;;22.28;100.00
8366;BME280;4220;42.502;24.188;2023-07-08T08:01:54;95512.03;;;22.51;100.00
8366;BME280;4220;42.502;24.188;2023-07-08T08:04:21;95524.94;;;22.64;100.00
8366;BME280;4220;42.502;24.188;2023-07-08T08:06:48;95496.50;;;22.67;100.00
8366;BME280;4220;42.502;24.188;2023-07-08T08:09:15;95511.25;;;22.80;100.00
8366;BME280;4220;42.502;24.188;2023-07-08T08:11:43;95509.59;;;23.02;100.00
8366;BME280;4220;42.502;24.188;2023-07-08T08:14:10;95545.03;;;22.82;100.00
8366;BME280;4220;42.502;24.188;2023-07-08T08:16:37;95524.75;;;22.80;100.00
8366;BME280;4220;42.502;24.188;2023-07-08T08:19:04;95523.03;;;22.89;100.00
8366;BME280;4220;42.502;24.188;2023-07-08T08:21:30;95525.56;;;22.80;100.00
8366;BME280;4220;42.502;24.188;2023-07-08T08:23:57;95520.16;;;22.80;100.00
8366;BME280;4220;42.502;24.188;2023-07-08T08:26:26;95510.94;;;22.81;100.00
8366;BME280;4220;42.502;24.188;2023-07-08T08:28:55;95516.25;;;22.67;100.00
8366;BME280;4220;42.502;24.188;2023-07-08T08:31:22;95544.31;;;22.71;100.00
8366;BME280;4220;42.502;24.188;2023-07-08T08:33:49;95531.78;;;22.52;100.00
8366;BME280;4220;42.502;24.188;2023-07-08T08:36:17;95535.69;;;22.41;100.00
8366;BME280;4220;42.502;24.188;2023-07-08T08:38:44;95524.19;;;22.54;100.00
8366;BME280;4220;42.502;24.188;2023-07-08T08:41:13;95540.88;;;22.61;100.00
8366;BME280;4220;42.502;24.188;2023-07-08T08:43:41;95514.13;;;22.59;100.00
8366;BME280;4220;42.502;24.188;2023-07-08T08:46:14;95523.53;;;22.91;100.00
8366;BME280;4220;42.502;24.188;2023-07-08T08:48:47;95550.47;;;23.01;100.00
8366;BME280;4220;42.502;24.188;2023-07-08T08:51:16;95525.31;;;23.00;100.00
8366;BME280;4220;42.502;24.188;2023-07-08T08:53:43;95532.13;;;23.21;100.00
8366;BME280;4220;42.502;24.188;2023-07-08T08:56:17;95528.22;;;23.09;100.00
8366;BME280;4220;42.502;24.188;2023-07-08T08:58:53;95535.69;;;23.40;100.00
8366;BME280;4220;42.502;24.188;2023-07-08T09:01:25;95531.22;;;23.50;100.00
8366;BME280;4220;42.502;24.188;2023-07-08T09:03:55;95516.91;;;23.25;100.00
8366;BME280;4220;42.502;24.188;2023-07-08T09:06:27;95531.97;;;23.55;100.00
8366;BME280;4220;42.502;24.188;2023-07-08T09:08:56;95530.88;;;23.75;100.00
8366;BME280;4220;42.502;24.188;2023-07-08T09:11:36;95538.25;;;23.69;100.00
8366;BME280;4220;42.502;24.188;2023-07-08T09:14:12;95522.81;;;23.70;100.00
8366;BME280;4220;42.502;24.188;2023-07-08T09:16:46;95505.19;;;23.72;100.00
8366;BME280;4220;42.502;24.188;2023-07-08T09:19:18;95509.59;;;23.68;100.00
8366;BME280;4220;42.502;24.188;2023-07-08T09:21:50;95505.47;;;23.89;100.00
8366;BME280;4220;42.502;24.188;2023-07-08T09:24:25;95501.72;;;24.04;98.84
8366;BME280;4220;42.502;24.188;2023-07-08T09:26:55;95501.34;;;24.11;99.77
8366;BME280;4220;42.502;24.188;2023-07-08T09:29:24;95502.06;;;24.35;98.68
8366;BME280;4220;42.502;24.188;2023-07-08T09:31:52;95504.09;;;24.56;97.70
8366;BME280;4220;42.502;24.188;2023-07-08T09:34:22;95504.91;;;24.57;97.82
8366;BME280;4220;42.502;24.188;2023-07-08T09:36:51;95498.97;;;24.55;96.16
8366;BME280;4220;42.502;24.188;2023-07-08T09:39:19;95508.38;;;24.44;94.84
8366;BME280;4220;42.502;24.188;2023-07-08T09:41:48;95512.34;;;24.65;95.72
8366;BME280;4220;42.502;24.188;2023-07-08T09:44:20;95496.38;;;24.63;93.59
8366;BME280;4220;42.502;24.188;2023-07-08T09:46:53;95510.69;;;24.50;94.12
8366;BME280;4220;42.502;24.188;2023-07-08T09:49:23;95491.00;;;24.45;92.90
8366;BME280;4220;42.502;24.188;2023-07-08T09:51:51;95479.38;;;24.58;93.30
8366;BME280;4220;42.502;24.188;2023-07-08T09:54:19;95503.78;;;24.58;93.09
8366;BME280;4220;42.502;24.188;2023-07-08T09:56:55;95492.44;;;24.69;91.50
8366;BME280;4220;42.502;24.188;2023-07-08T09:59:26;95478.03;;;24.88;91.79
8366;BME280;4220;42.502;24.188;2023-07-08T10:01:56;95475.09;;;25.11;92.29
8366;BME280;4220;42.502;24.188;2023-07-08T10:04:22;95505.75;;;25.25;90.73
8366;BME280;4220;42.502;24.188;2023-07-08T10:06:49;95487.16;;;25.19;89.89
8366;BME280;4220;42.502;24.188;2023-07-08T10:09:20;95496.41;;;24.77;91.09
8366;BME280;4220;42.502;24.188;2023-07-08T10:11:49;95462.09;;;24.54;87.87
8366;BME280;4220;42.502;24.188;2023-07-08T10:14:24;95493.06;;;24.66;87.21
8366;BME280;4220;42.502;24.188;2023-07-08T10:16:52;95482.75;;;24.82;85.52
8366;BME280;4220;42.502;24.188;2023-07-08T10:19:21;95486.38;;;25.18;83.15
8366;BME280;4220;42.502;24.188;2023-07-08T10:22:04;95487.53;;;25.40;83.10
8366;BME280;4220;42.502;24.188;2023-07-08T10:24:51;95473.72;;;25.63;81.33
8366;BME280;4220;42.502;24.188;2023-07-08T10:27:26;95466.63;;;25.76;81.18
8366;BME280;4220;42.502;24.188;2023-07-08T10:30:00;95473.06;;;26.02;78.81
8366;BME280;4220;42.502;24.188;2023-07-08T10:32:36;95468.75;;;26.01;78.63
8366;BME280;4220;42.502;24.188;2023-07-08T10:35:15;95461.69;;;26.00;78.54
8366;BME280;4220;42.502;24.188;2023-07-08T10:37:54;95415.31;;;25.74;79.62
8366;BME280;4220;42.502;24.188;2023-07-08T10:40:33;95449.28;;;25.85;80.44
8366;BME280;4220;42.502;24.188;2023-07-08T10:43:18;95427.16;;;25.78;80.83
8366;BME280;4220;42.502;24.188;2023-07-08T10:46:05;95445.59;;;26.04;80.08
8366;BME280;4220;42.502;24.188;2023-07-08T10:48:49;95434.63;;;25.73;81.81
8366;BME280;4220;42.502;24.188;2023-07-08T10:51:26;95443.78;;;25.55;82.47
8366;BME280;4220;42.502;24.188;2023-07-08T10:54:17;95427.97;;;25.57;81.20
8366;BME280;4220;42.502;24.188;2023-07-08T10:56:51;95438.84;;;25.79;80.36
8366;BME280;4220;42.502;24.188;2023-07-08T10:59:32;95431.31;;;25.98;79.54
8366;BME280;4220;42.502;24.188;2023-07-08T11:02:35;95428.34;;;25.86;79.63
8366;BME280;4220;42.502;24.188;2023-07-08T11:05:18;95428.78;;;26.24;77.67
8366;BME280;4220;42.502;24.188;2023-07-08T11:07:53;95439.97;;;26.53;75.66
8366;BME280;4220;42.502;24.188;2023-07-08T11:10:25;95429.91;;;26.53;74.93
8366;BME280;4220;42.502;24.188;2023-07-08T11:12:58;95439.38;;;26.65;75.53
8366;BME280;4220;42.502;24.188;2023-07-08T11:15:31;95447.72;;;26.68;75.39
8366;BME280;4220;42.502;24.188;2023-07-08T11:18:06;95434.41;;;26.67;73.59
8366;BME280;4220;42.502;24.188;2023-07-08T11:20:38;95434.22;;;26.94;74.39
8366;BME280;4220;42.502;24.188;2023-07-08T11:23:16;95433.94;;;27.04;74.65
8366;BME280;4220;42.502;24.188;2023-07-08T11:25:48;95447.25;;;27.22;73.90
8366;BME280;4220;42.502;24.188;2023-07-08T11:28:19;95435.69;;;27.00;75.40
8366;BME280;4220;42.502;24.188;2023-07-08T11:30:50;95427.53;;;27.08;73.46
8366;BME280;4220;42.502;24.188;2023-07-08T11:33:22;95448.59;;;27.42;73.01
8366;BME280;4220;42.502;24.188;2023-07-08T11:35:52;95437.00;;;27.11;75.56
8366;BME280;4220;42.502;24.188;2023-07-08T11:38:22;95433.56;;;26.88;75.41
8366;BME280;4220;42.502;24.188;2023-07-08T11:40:51;95444.59;;;26.83;75.29
8366;BME280;4220;42.502;24.188;2023-07-08T11:43:19;95410.59;;;26.72;72.58
8366;BME280;4220;42.502;24.188;2023-07-08T11:45:48;95423.97;;;26.91;72.03
8366;BME280;4220;42.502;24.188;2023-07-08T11:48:25;95426.53;;;26.96;72.63
8366;BME280;4220;42.502;24.188;2023-07-08T11:50:53;95423.88;;;26.74;71.54
8366;BME280;4220;42.502;24.188;2023-07-08T11:53:47;95413.25;;;26.55;72.98
8366;BME280;4220;42.502;24.188;2023-07-08T11:56:22;95412.63;;;26.58;74.35
8366;BME280;4220;42.502;24.188;2023-07-08T11:58:52;95409.09;;;26.57;75.38
8366;BME280;4220;42.502;24.188;2023-07-08T12:01:26;95409.69;;;26.77;75.35
8366;BME280;4220;42.502;24.188;2023-07-08T12:03:58;95432.19;;;27.08;75.73
8366;BME280;4220;42.502;24.188;2023-07-08T12:06:47;95416.13;;;26.89;76.73
8366;BME280;4220;42.502;24.188;2023-07-08T12:09:22;95415.16;;;26.54;78.65
8366;BME280;4220;42.502;24.188;2023-07-08T12:11:54;95406.53;;;26.61;77.83
8366;BME280;4220;42.502;24.188;2023-07-08T12:14:22;95399.22;;;26.70;76.76
8366;BME280;4220;42.502;24.188;2023-07-08T12:16:49;95408.47;;;27.00;75.34
8366;BME280;4220;42.502;24.188;2023-07-08T12:19:21;95386.53;;;26.96;74.66
8366;BME280;4220;42.502;24.188;2023-07-08T12:21:50;95426.72;;;27.08;73.72
8366;BME280;4220;42.502;24.188;2023-07-08T12:24:19;95418.66;;;26.86;75.29
8366;BME280;4220;42.502;24.188;2023-07-08T12:26:51;95411.38;;;26.64;76.87
8366;BME280;4220;42.502;24.188;2023-07-08T12:29:22;95396.38;;;26.75;77.85
8366;BME280;4220;42.502;24.188;2023-07-08T12:31:49;95417.06;;;26.85;78.36
8366;BME280;4220;42.502;24.188;2023-07-08T12:34:17;95418.88;;;26.58;77.92
8366;BME280;4220;42.502;24.188;2023-07-08T12:36:44;95421.59;;;26.06;78.34
8366;BME280;4220;42.502;24.188;2023-07-08T12:39:14;95424.28;;;25.75;79.99
8366;BME280;4220;42.502;24.188;2023-07-08T12:41:44;95376.19;;;25.40;81.66
8366;BME280;4220;42.502;24.188;2023-07-08T12:44:16;95408.75;;;25.97;81.75
8366;BME280;4220;42.502;24.188;2023-07-08T12:46:44;95414.56;;;26.05;81.99
8366;BME280;4220;42.502;24.188;2023-07-08T12:49:12;95428.59;;;26.20;80.92
8366;BME280;4220;42.502;24.188;2023-07-08T12:51:43;95419.47;;;26.16;77.44
8366;BME280;4220;42.502;24.188;2023-07-08T12:54:12;95414.81;;;26.47;71.64
8366;BME280;4220;42.502;24.188;2023-07-08T12:56:42;95423.22;;;27.16;70.08
8366;BME280;4220;42.502;24.188;2023-07-08T12:59:14;95391.69;;;27.23;68.38
8366;BME280;4220;42.502;24.188;2023-07-08T13:01:45;95438.22;;;27.44;69.97
8366;BME280;4220;42.502;24.188;2023-07-08T13:04:14;95448.63;;;27.59;66.23
8366;BME280;4220;42.502;24.188;2023-07-08T13:06:43;95425.41;;;27.53;67.40
8366;BME280;4220;42.502;24.188;2023-07-08T13:09:23;95448.97;;;27.83;65.95
8366;BME280;4220;42.502;24.188;2023-07-08T13:11:51;95434.94;;;28.45;64.48
8366;BME280;4220;42.502;24.188;2023-07-08T13:14:24;95441.81;;;28.97;65.46